Detall de PIREP

Printer-friendly versionPDF version

[2013/05/25 15:02:00]
Flight IATA:CT3110
Pilot Number:044
Company ICAO:CAT
Aircraft Type:AT72/F
PAX:40
Departing Airport: LEBL
Destination Airport: LEPA
Alternate Airport:LEMH
Online: VATSIM
Route:LARPA B31 TOLSO
Flight Level:F190
No Slew and time accel
No pause
Crash detect
Detect pilot in Cockpit between each 30 and 45 minutes
15:02 Zero fuel Weight: 39664 Lbs, Fuel Weight: 5460 Lbs
15:02 VATSIM:LEBL 251600Z 15010KT 9999 FEW020 17/10 Q1015 NOSIG
15:02 VATSIM:LEPA 251600Z 31014KT 280V340 9999 FEW040 21/03 Q1016 NOSIG
15:02 VOICE CATALONIAN
15:03 Parking Brakes off
15:19 Take-off
15:19 Take off Weight: 44991 Lbs
15:19 Wind: 152º @ 010 Knots Heading: 241º
15:19 POS N41º 17´ 04´´ E002º 04´ 53´´
15:19 Gear Up: 147 Knots
15:19 Flaps:1 at 147 Knots
15:19 Flaps:0 at 134 Knots
15:31 TOC
15:31 Fuel Weight: 4900 Lb
15:34 Wind:170º@011 Knots Heading: 157º Ground Speed:265 Knots Altitude 19064 ft
15:41 TOD
15:41 Fuel Weight: 4610 Lb
15:49 Wind:302º@011 Knots Heading: 147º Ground Speed: 216 Knots Altitude 7096 ft
16:04 Wind:326º@010 Knots Heading: 062º Ground Speed: 151 Knots Altitude 5013 ft
16:11 Flaps:1 at 146 Knots
16:11 Flaps:2 at 149 Knots
16:13 Gear Down: 137 Knots
16:16 TouchDown:Rate -106 ft/min Speed: 105 Knots
16:16 VATSIM:LEPA 251700Z 32006KT 260V030 9999 FEW040 21/02 Q1016 NOSIG
16:16 Land
16:16 Wind:326º@006 Knots
16:16 Heading: 246º
16:16 Flight Duration: 00:57
16:16 Landing Weight: 43932 Lbs
16:16 POS N39º 32´ 46´´ E002º 44´ 34´´
16:28 Parking brakes on
16:28 Block to Block Duration: 01:25
16:28 Final Fuel: 4197 Lbls
16:28 Spent Fuel: 1263 Lbls
16:28 Flight Length: 188 NM
16:28 TOD Land Length: 104 NM

Exportar CSV

Powered by Drupal - Modified by Danger4k